Time;durP1;ratioP1;P1;durP2;ratioP2;P2;SDS_P1;SDS_P2;PMS_P1;PMS_P2;Temp;Humidity;BMP_temperature;BMP_pressure;BME280_temperature;BME280_humidity;BME280_pressure;Samples;Min_cycle;Max_cycle;Signal;HPM_P1;HPM_P2
2022/01/15 00:00:17;;;;;;;8.57;2.33;;;;;;;1.25;73.46;101686.19;5046414;28;20636;-74
2022/01/15 00:02:43;;;;;;;15.23;3.30;;;;;;;1.25;73.33;101675.09;5046319;28;20031;-74
2022/01/15 00:05:09;;;;;;;11.90;2.78;;;;;;;1.25;73.20;101664.88;5064215;28;20025;-73
2022/01/15 00:07:34;;;;;;;13.23;2.53;;;;;;;1.12;73.37;101654.00;5064269;28;20092;-74
2022/01/15 00:09:59;;;;;;;12.80;3.35;;;;;;;1.16;73.31;101668.72;5064016;28;20021;-75
2022/01/15 00:12:25;;;;;;;11.52;2.42;;;;;;;1.11;73.30;101654.81;5063597;28;20051;-74
2022/01/15 00:14:52;;;;;;;15.98;2.72;;;;;;;1.06;73.34;101648.56;5064092;28;20013;-74
2022/01/15 00:17:33;;;;;;;13.98;2.90;;;;;;;1.08;73.48;101659.78;5063931;28;20035;-74
2022/01/15 00:20:05;;;;;;;14.68;2.90;;;;;;;0.91;73.87;101634.19;5063742;28;20547;-77
2022/01/15 00:22:30;;;;;;;13.95;2.75;;;;;;;0.97;73.99;101647.31;5063855;28;20024;-78
2022/01/15 00:24:56;;;;;;;16.17;3.13;;;;;;;1.02;73.70;101655.22;5063417;28;20055;-77
2022/01/15 00:27:21;;;;;;;22.75;2.83;;;;;;;1.01;73.47;101665.38;5045522;28;20017;-77
2022/01/15 00:29:46;;;;;;;9.10;2.25;;;;;;;0.92;73.45;101663.22;5062986;28;20029;-77
2022/01/15 00:32:12;;;;;;;11.05;2.17;;;;;;;0.93;73.62;101664.97;5063483;28;20021;-78
2022/01/15 00:34:37;;;;;;;13.88;2.55;;;;;;;0.94;73.69;101662.47;5063462;28;20041;-78
2022/01/15 00:37:03;;;;;;;20.10;3.22;;;;;;;0.81;73.66;101653.31;5063640;28;20025;-78
2022/01/15 00:39:29;;;;;;;11.15;3.00;;;;;;;0.83;73.82;101666.19;5045570;28;20033;-77
2022/01/15 00:41:54;;;;;;;16.60;2.45;;;;;;;0.77;74.11;101647.97;5063219;28;20029;-78
2022/01/15 00:44:20;;;;;;;11.48;2.17;;;;;;;0.92;74.16;101676.00;5063118;28;20021;-78
2022/01/15 00:46:45;;;;;;;11.45;2.97;;;;;;;1.03;74.10;101684.22;5063420;28;20083;-78
2022/01/15 00:49:11;;;;;;;14.77;4.15;;;;;;;0.97;73.96;101677.13;5063372;28;20024;-77
2022/01/15 00:51:37;;;;;;;18.88;2.60;;;;;;;1.01;73.91;101685.84;5063384;28;20020;-77
2022/01/15 00:54:03;;;;;;;9.93;2.22;;;;;;;0.93;73.91;101673.53;5063376;28;20486;-77
2022/01/15 00:56:29;;;;;;;10.45;2.17;;;;;;;0.92;73.76;101688.78;5063250;28;20025;-77
2022/01/15 00:58:55;;;;;;;17.83;3.28;;;;;;;0.90;73.70;101691.25;5062930;28;20100;-77
2022/01/15 01:01:22;;;;;;;14.60;3.00;;;;;;;0.82;73.73;101687.41;5045032;28;20021;-77
2022/01/15 01:03:49;;;;;;;15.75;3.10;;;;;;;0.68;73.55;101674.81;5063039;28;20037;-78
2022/01/15 01:06:15;;;;;;;10.15;2.42;;;;;;;0.71;73.72;101705.66;5063076;28;20031;-77
2022/01/15 01:08:40;;;;;;;20.55;4.93;;;;;;;0.59;74.03;101695.63;5063260;28;20025;-77
2022/01/15 01:11:12;;;;;;;14.68;1.98;;;;;;;0.54;73.93;101684.31;5062970;28;20036;-77
2022/01/15 01:24:18;;;;;;;19.88;2.85;;;;;;;0.59;74.13;101708.41;5063269;28;20031;-78
2022/01/15 01:26:50;;;;;;;12.73;2.92;;;;;;;0.49;74.10;101689.16;5045135;28;20036;-76
2022/01/15 01:34:39;;;;;;;15.23;2.63;;;;;;;0.44;74.28;101682.03;5000825;28;20046;-78
2022/01/15 01:37:15;;;;;;;11.93;2.72;;;;;;;0.56;74.20;101704.84;5000810;28;20038;-77
2022/01/15 01:39:45;;;;;;;14.32;3.00;;;;;;;0.48;74.24;101682.28;5001384;28;20076;-77
2022/01/15 01:45:07;;;;;;;10.43;2.38;;;;;;;0.55;74.30;101682.59;5004757;28;20030;-78
2022/01/15 01:50:04;;;;;;;13.13;3.33;;;;;;;0.41;74.29;101670.00;5004689;28;20378;-77
2022/01/15 01:52:30;;;;;;;11.88;2.58;;;;;;;0.46;74.31;101678.75;5004371;28;20081;-77
2022/01/15 01:54:55;;;;;;;13.80;2.42;;;;;;;0.29;74.36;101649.75;5004565;28;20098;-77
2022/01/15 01:57:21;;;;;;;23.52;4.10;;;;;;;0.23;74.32;101627.31;5004278;28;20173;-76
2022/01/15 01:59:46;;;;;;;12.05;2.47;;;;;;;0.55;74.33;101683.50;5004365;28;20026;-77
2022/01/15 02:02:11;;;;;;;13.23;2.60;;;;;;;0.47;74.34;101647.31;5004319;28;20037;-78
2022/01/15 02:04:37;;;;;;;18.90;3.17;;;;;;;0.58;74.37;101672.53;5004228;28;20093;-78
2022/01/15 02:07:02;;;;;;;17.73;3.22;;;;;;;0.57;74.20;101668.25;5004733;28;20084;-77
2022/01/15 02:09:28;;;;;;;17.00;3.13;;;;;;;0.56;74.26;101667.34;4988099;28;20058;-77
2022/01/15 02:11:53;;;;;;;13.75;2.65;;;;;;;0.41;74.25;101643.53;5042328;28;20043;-77
2022/01/15 02:14:29;;;;;;;14.55;2.65;;;;;;;0.49;74.36;101653.41;5066259;28;20042;-77
2022/01/15 02:16:56;;;;;;;16.10;2.97;;;;;;;0.41;74.27;101643.53;5066199;28;20024;-77
2022/01/15 02:19:21;;;;;;;26.88;3.03;;;;;;;0.46;74.44;101653.19;5066189;28;20142;-77
2022/01/15 02:24:12;;;;;;;16.40;3.22;;;;;;;0.44;74.30;101644.59;5066114;28;20056;-78
2022/01/15 02:26:39;;;;;;;12.68;2.90;;;;;;;0.43;74.30;101647.94;5066084;28;20043;-76
2022/01/15 02:29:07;;;;;;;17.52;3.17;;;;;;;0.55;74.40;101652.81;5065871;28;20032;-77
2022/01/15 02:31:33;;;;;;;12.43;4.07;;;;;;;0.52;74.23;101642.44;5047771;28;20032;-76
2022/01/15 02:34:02;;;;;;;16.92;3.05;;;;;;;0.54;74.38;101637.41;5065566;28;20088;-77
2022/01/15 02:36:34;;;;;;;13.35;2.90;;;;;;;0.57;74.49;101633.34;5065710;28;20484;-76
2022/01/15 02:38:59;;;;;;;;;;;;;;;0.68;74.39;101644.13;5048176;28;20102;-76
2022/01/15 02:41:31;;;;;;;18.85;3.00;;;;;;;0.68;74.51;101644.13;5065665;28;19909;-78
2022/01/15 02:43:58;;;;;;;16.10;3.05;;;;;;;0.71;74.39;101638.28;5047404;28;20039;-78
2022/01/15 02:48:56;;;;;;;;;;;;;;;0.79;74.57;101631.91;5066040;28;20025;-76
2022/01/15 02:51:25;;;;;;;20.38;3.05;;;;;;;0.79;74.69;101637.00;5064571;28;19959;-78
2022/01/15 02:53:57;;;;;;;16.90;2.35;;;;;;;0.80;74.63;101632.78;5065513;28;20013;-78
2022/01/15 02:56:24;;;;;;;15.43;2.50;;;;;;;0.83;74.51;101638.91;5065128;28;20025;-77
2022/01/15 02:58:49;;;;;;;20.13;2.70;;;;;;;0.86;74.33;101640.78;5065052;28;20036;-78
2022/01/15 03:01:15;;;;;;;14.98;2.65;;;;;;;0.88;74.29;101633.19;5065413;28;20021;-78
2022/01/15 03:03:40;;;;;;;12.50;2.30;;;;;;;0.97;74.22;101631.97;5065538;28;20017;-80
2022/01/15 03:06:15;;;;;;;17.48;2.88;;;;;;;0.97;74.07;101626.88;5047268;28;20020;-79
2022/01/15 03:08:41;;;;;;;10.88;2.58;;;;;;;1.04;73.92;101622.06;5065253;28;20032;-79
2022/01/15 03:11:07;;;;;;;17.80;2.92;;;;;;;1.18;73.53;101631.28;5065139;28;20029;-79
2022/01/15 03:13:34;;;;;;;16.00;3.50;;;;;;;1.12;73.64;101620.75;5064805;28;20032;-79
2022/01/15 03:15:59;;;;;;;12.35;2.53;;;;;;;1.22;73.54;101624.66;5065241;28;20057;-78
2022/01/15 03:18:24;;;;;;;13.15;2.20;;;;;;;1.19;73.11;101621.94;5046981;28;20032;-79
2022/01/15 03:20:50;;;;;;;13.88;2.63;;;;;;;1.19;72.50;101619.38;5065212;28;20025;-79
2022/01/15 03:23:15;;;;;;;14.65;3.70;;;;;;;1.20;72.15;101609.22;5065018;28;20031;-77
2022/01/15 03:25:41;;;;;;;18.05;2.85;;;;;;;1.28;72.50;101629.22;5046957;28;20359;-79
2022/01/15 03:28:06;;;;;;;14.02;2.58;;;;;;;1.23;72.85;101622.16;5045808;28;20404;-77
2022/01/15 03:30:32;;;;;;;9.52;3.78;;;;;;;1.27;73.00;101623.19;5064245;28;20489;-80
2022/01/15 03:32:58;;;;;;;11.30;2.58;;;;;;;1.27;72.86;101619.75;5064740;28;20033;-79
2022/01/15 03:35:23;;;;;;;11.35;3.05;;;;;;;1.25;73.03;101609.44;5064562;28;20040;-79
2022/01/15 03:37:49;;;;;;;20.33;3.25;;;;;;;1.28;73.02;101611.31;5065019;28;20028;-81
2022/01/15 03:40:15;;;;;;;19.83;2.90;;;;;;;1.22;72.96;101599.06;5064858;28;20025;-79
2022/01/15 03:42:41;;;;;;;13.20;3.05;;;;;;;1.26;72.96;101606.09;5064329;28;20029;-79
2022/01/15 03:45:07;;;;;;;11.70;2.92;;;;;;;1.22;72.95;101607.63;5046434;28;20028;-77
2022/01/15 03:47:33;;;;;;;20.92;3.95;;;;;;;1.02;72.94;101582.72;5064391;28;20025;-77
2022/01/15 03:49:58;;;;;;;12.23;2.80;;;;;;;1.11;73.00;101607.09;5046916;28;20374;-77
2022/01/15 03:52:24;;;;;;;19.33;3.90;;;;;;;1.17;72.98;101614.19;5064438;28;20551;-77
2022/01/15 03:54:49;;;;;;;12.77;2.25;;;;;;;1.10;72.68;101630.91;5064446;28;20013;-77
2022/01/15 03:57:15;;;;;;;11.90;2.75;;;;;;;1.06;72.58;101623.88;5064294;28;20401;-79
2022/01/15 03:59:41;;;;;;;12.55;2.95;;;;;;;0.91;72.74;101595.84;5064103;28;20029;-79
2022/01/15 04:02:07;;;;;;;20.42;3.92;;;;;;;1.01;73.05;101619.34;5064107;28;20025;-79
2022/01/15 04:04:32;;;;;;;16.55;2.67;;;;;;;0.97;73.09;101616.63;5046231;28;20017;-78
2022/01/15 04:06:58;;;;;;;20.63;3.17;;;;;;;0.89;73.31;101610.25;5046132;28;20074;-78
2022/01/15 04:09:23;;;;;;;12.43;3.05;;;;;;;0.76;73.03;101584.84;5046043;28;20025;-78
2022/01/15 04:11:48;;;;;;;13.77;2.90;;;;;;;0.73;73.07;101596.69;5063978;28;20029;-78
2022/01/15 04:14:14;;;;;;;14.60;3.10;;;;;;;0.79;73.30;101611.44;5063988;28;20017;-79
2022/01/15 04:16:40;;;;;;;11.77;3.03;;;;;;;0.73;73.38;101612.03;5046176;28;20025;-78
2022/01/15 04:19:08;;;;;;;23.60;3.38;;;;;;;0.63;73.43;101598.66;5063763;28;20044;-78
2022/01/15 04:21:35;;;;;;;12.68;2.78;;;;;;;0.62;73.64;101590.16;5063949;28;20029;-79
2022/01/15 04:24:02;;;;;;;10.88;2.60;;;;;;;0.73;73.77;101601.81;5045681;28;20032;-77
2022/01/15 04:26:27;;;;;;;10.35;2.50;;;;;;;0.72;73.95;101599.13;5063737;28;20197;-78
2022/01/15 04:28:55;;;;;;;15.07;2.60;;;;;;;0.86;74.00;101612.66;5045531;28;20553;-78
2022/01/15 04:31:21;;;;;;;16.45;2.40;;;;;;;0.92;74.04;101610.41;5063740;28;20075;-78
2022/01/15 04:33:47;;;;;;;17.15;3.80;;;;;;;0.92;74.03;101607.84;5045475;28;20025;-78
2022/01/15 04:36:12;;;;;;;14.15;2.88;;;;;;;0.76;73.31;101578.06;5063589;28;20126;-78
2022/01/15 04:38:39;;;;;;;14.45;2.97;;;;;;;0.91;72.93;101605.22;5063622;28;20035;-77
2022/01/15 04:41:05;;;;;;;14.52;3.00;;;;;;;0.90;72.73;101603.44;5063669;28;20640;-78
2022/01/15 04:43:31;;;;;;;17.67;3.53;;;;;;;0.71;72.75;101576.94;5045432;28;20029;-78
2022/01/15 04:45:56;;;;;;;18.67;2.83;;;;;;;0.88;73.07;101592.28;5063539;28;20043;-78
2022/01/15 04:48:22;;;;;;;17.67;2.67;;;;;;;0.86;72.65;101594.75;5063584;28;20047;-78
2022/01/15 04:50:48;;;;;;;9.00;2.83;;;;;;;0.86;72.43;101593.06;5063386;28;20024;-78
2022/01/15 04:53:13;;;;;;;13.20;3.83;;;;;;;0.80;72.13;101591.88;5063568;28;20024;-79
2022/01/15 04:55:39;;;;;;;12.77;2.50;;;;;;;0.85;72.35;101582.75;5064023;28;20021;-79
2022/01/15 04:58:06;;;;;;;18.00;3.25;;;;;;;0.83;72.92;101582.66;5063359;28;20088;-79
2022/01/15 05:00:32;;;;;;;20.52;3.42;;;;;;;0.84;72.75;101581.91;5063419;28;20021;-79
2022/01/15 05:02:58;;;;;;;15.60;2.55;;;;;;;0.77;72.90;101571.28;5063358;28;20029;-80
2022/01/15 05:05:25;;;;;;;10.35;2.40;;;;;;;0.77;73.25;101571.28;5063171;28;20036;-78
2022/01/15 05:07:52;;;;;;;13.63;3.33;;;;;;;0.83;73.45;101576.69;5063142;28;20046;-79
2022/01/15 05:10:20;;;;;;;16.10;2.78;;;;;;;0.87;73.44;101583.72;5063226;28;20067;-81
2022/01/15 05:12:48;;;;;;;22.98;4.15;;;;;;;0.82;73.54;101575.81;5064014;28;20029;-81
2022/01/15 05:15:15;;;;;;;17.90;2.90;;;;;;;0.85;73.77;101572.53;5067898;28;20017;-82
2022/01/15 05:17:41;;;;;;;21.95;4.15;;;;;;;0.85;73.78;101569.97;5067625;28;20032;-83
2022/01/15 05:20:08;;;;;;;14.35;3.63;;;;;;;0.86;73.69;101574.31;5049594;28;20120;-83
2022/01/15 05:22:34;;;;;;;12.05;3.05;;;;;;;0.85;73.83;101565.75;5067186;28;20021;-82
2022/01/15 05:25:00;;;;;;;13.27;2.90;;;;;;;0.82;73.87;101560.47;5067458;28;20021;-81
2022/01/15 05:27:26;;;;;;;19.15;3.30;;;;;;;0.73;73.86;101557.47;5049037;28;20017;-82
2022/01/15 05:29:51;;;;;;;16.58;3.10;;;;;;;0.78;73.58;101560.25;5067834;28;20017;-80
2022/01/15 05:32:23;;;;;;;11.63;2.72;;;;;;;0.73;73.91;101558.34;5067133;28;20029;-80
2022/01/15 05:34:49;;;;;;;17.33;3.45;;;;;;;0.60;74.00;101543.16;5067236;28;20041;-80
2022/01/15 05:37:14;;;;;;;12.25;3.88;;;;;;;0.52;73.94;101544.44;5067326;28;20028;-82
2022/01/15 05:39:40;;;;;;;21.88;3.60;;;;;;;0.44;74.09;101544.94;5067357;28;20031;-80
2022/01/15 05:42:05;;;;;;;10.98;2.95;;;;;;;0.46;74.09;101558.66;5066910;28;20104;-81
2022/01/15 05:44:31;;;;;;;12.82;2.90;;;;;;;0.42;74.09;101566.09;5068168;28;20025;-82
2022/01/15 05:46:56;;;;;;;10.55;2.95;;;;;;;0.32;74.13;101549.44;5066905;28;20051;-80
2022/01/15 05:49:22;;;;;;;18.13;2.75;;;;;;;0.32;74.16;101546.88;5067107;28;20059;-79
2022/01/15 05:51:47;;;;;;;14.55;2.90;;;;;;;0.30;74.19;101562.13;5065290;28;20025;-79
2022/01/15 05:54:13;;;;;;;22.38;3.17;;;;;;;0.21;74.13;101554.84;5066644;28;20040;-78
2022/01/15 05:56:39;;;;;;;12.40;2.50;;;;;;;0.19;74.08;101551.31;5048522;28;20112;-78
2022/01/15 05:59:06;;;;;;;12.60;3.22;;;;;;;0.18;74.24;101559.78;5065207;28;20064;-79
2022/01/15 06:01:32;;;;;;;15.00;2.90;;;;;;;0.15;74.31;101558.72;5065571;28;20021;-78
2022/01/15 06:03:57;;;;;;;11.40;2.67;;;;;;;0.03;74.30;101543.66;5065604;28;20426;-78
2022/01/15 06:06:23;;;;;;;13.68;2.40;;;;;;;-0.05;74.22;101536.44;5048540;28;20029;-79
2022/01/15 06:08:48;;;;;;;18.55;4.20;;;;;;;-0.13;74.35;101530.94;5048497;28;20028;-79
2022/01/15 06:11:17;;;;;;;13.23;3.25;;;;;;;-0.15;74.32;101532.53;5066425;28;20017;-79
2022/01/15 06:13:44;;;;;;;14.13;3.78;;;;;;;-0.05;75.15;101531.34;5066231;28;20055;-81
2022/01/15 06:16:10;;;;;;;11.55;4.07;;;;;;;-0.02;75.36;101521.28;5048236;28;20278;-78
2022/01/15 06:18:35;;;;;;;17.67;2.92;;;;;;;-0.01;75.25;101512.84;5066203;28;20052;-78
2022/01/15 06:21:00;;;;;;;14.90;2.33;;;;;;;0.15;75.50;101528.09;5065972;28;20020;-78
2022/01/15 06:23:26;;;;;;;21.40;4.75;;;;;;;0.26;75.59;101531.22;5047979;28;20036;-80
2022/01/15 06:25:51;;;;;;;9.48;2.95;;;;;;;0.27;75.64;101531.31;5065417;28;20044;-79
2022/01/15 06:28:17;;;;;;;19.00;3.10;;;;;;;0.41;75.71;101546.44;5046975;28;20024;-79
2022/01/15 06:30:42;;;;;;;10.52;2.15;;;;;;;0.36;75.39;101543.66;5048072;28;20305;-80
2022/01/15 06:33:07;;;;;;;9.50;2.10;;;;;;;0.15;75.61;101513.66;5065683;28;20029;-81
2022/01/15 06:35:33;;;;;;;15.55;2.83;;;;;;;0.27;75.86;101527.84;5065752;28;20056;-80
2022/01/15 06:37:58;;;;;;;20.02;3.63;;;;;;;0.29;75.89;101521.16;5065083;28;20028;-81
2022/01/15 06:40:23;;;;;;;15.30;3.38;;;;;;;0.44;75.79;101549.16;5065236;28;20024;-79
2022/01/15 06:42:49;;;;;;;11.75;3.35;;;;;;;0.40;76.03;101535.34;5046552;28;20032;-80
2022/01/15 06:45:14;;;;;;;20.65;3.15;;;;;;;0.42;75.81;101538.88;5046649;28;20063;-78
2022/01/15 06:47:40;;;;;;;14.32;3.40;;;;;;;0.46;75.85;101556.09;5063945;28;20075;-78
2022/01/15 06:50:08;;;;;;;14.25;2.80;;;;;;;0.35;75.82;101536.81;5048026;28;20163;-77
2022/01/15 06:52:35;;;;;;;15.75;3.63;;;;;;;0.30;75.96;101539.13;5065524;28;20021;-79
2022/01/15 06:55:02;;;;;;;14.50;3.65;;;;;;;0.41;75.99;101559.22;5065254;28;20021;-78
2022/01/15 06:57:28;;;;;;;24.27;4.22;;;;;;;0.42;76.06;101558.41;5065251;28;20032;-80
2022/01/15 06:59:54;;;;;;;18.92;4.45;;;;;;;0.40;75.89;101562.59;5047501;28;20035;-79
2022/01/15 07:02:20;;;;;;;20.15;4.18;;;;;;;0.28;76.04;101545.81;5065163;28;20067;-79
2022/01/15 07:04:45;;;;;;;35.00;5.60;;;;;;;0.07;75.69;101514.91;5065170;28;20517;-78
2022/01/15 07:07:11;;;;;;;18.80;4.50;;;;;;;0.05;75.64;101534.41;5065182;28;20036;-78
2022/01/15 07:09:36;;;;;;;12.88;3.83;;;;;;;0.13;75.89;101548.44;5065073;28;20028;-77
2022/01/15 07:12:03;;;;;;;15.48;3.70;;;;;;;0.11;75.87;101555.16;5064769;28;20104;-73
2022/01/15 07:14:29;;;;;;;19.63;3.55;;;;;;;-0.01;75.93;101545.16;5065012;28;20055;-73
2022/01/15 07:16:54;;;;;;;17.52;3.50;;;;;;;0.03;75.93;101549.66;5063352;28;20025;-73
2022/01/15 07:19:19;;;;;;;18.75;6.68;;;;;;;-0.01;76.17;101542.59;5064819;28;20082;-75
2022/01/15 07:21:46;;;;;;;19.65;6.45;;;;;;;0.05;76.39;101542.91;5064943;28;20060;-73
2022/01/15 07:24:11;;;;;;;16.50;4.03;;;;;;;0.07;76.38;101535.34;5064582;28;20101;-74
2022/01/15 07:26:37;;;;;;;16.10;4.03;;;;;;;0.10;76.51;101536.38;5064307;28;20035;-74
2022/01/15 07:29:04;;;;;;;15.05;4.65;;;;;;;0.23;76.36;101553.25;5063576;28;20579;-74
2022/01/15 07:31:30;;;;;;;20.85;3.95;;;;;;;0.13;76.51;101535.66;5046162;28;20075;-76
2022/01/15 07:33:56;;;;;;;26.08;4.00;;;;;;;0.29;76.53;101549.25;5064369;28;20049;-75
2022/01/15 07:36:22;;;;;;;22.20;3.85;;;;;;;0.10;76.53;101515.97;5064537;28;20390;-75
2022/01/15 07:38:47;;;;;;;17.83;4.00;;;;;;;0.23;76.06;101526.81;5063932;28;20074;-75
2022/01/15 07:41:13;;;;;;;20.13;4.55;;;;;;;0.07;76.48;101513.25;5046178;28;20045;-74
2022/01/15 07:43:39;;;;;;;18.85;4.38;;;;;;;0.16;76.63;101525.59;5064130;28;20032;-76
2022/01/15 07:46:05;;;;;;;20.77;5.72;;;;;;;-0.02;76.66;101495.75;5064536;28;20021;-76
2022/01/15 07:48:30;;;;;;;24.65;4.18;;;;;;;0.17;76.95;101514.63;5046244;28;20501;-76
2022/01/15 07:50:56;;;;;;;18.52;3.97;;;;;;;0.22;76.94;101510.59;5064271;28;20035;-76
2022/01/15 07:53:22;;;;;;;23.05;4.85;;;;;;;0.44;76.99;101552.59;5063959;28;20016;-76
2022/01/15 07:55:47;;;;;;;17.75;4.43;;;;;;;0.39;76.99;101532.72;5064421;28;20013;-76
2022/01/15 07:58:13;;;;;;;13.35;3.75;;;;;;;0.30;76.98;101521.25;5064036;28;20027;-76
2022/01/15 08:00:38;;;;;;;25.67;4.43;;;;;;;0.27;76.90;101526.19;5064027;28;20029;-76
2022/01/15 08:03:04;;;;;;;13.20;4.15;;;;;;;-0.05;76.69;101490.47;5063907;28;20025;-75
2022/01/15 08:05:29;;;;;;;23.17;4.68;;;;;;;0.02;76.98;101511.25;5064317;28;20043;-77
2022/01/15 08:07:55;;;;;;;18.83;4.13;;;;;;;-0.27;76.99;101485.91;5045918;28;20021;-76
2022/01/15 08:10:20;;;;;;;17.20;3.40;;;;;;;-0.22;77.08;101504.06;5063859;28;20017;-77
2022/01/15 08:12:48;;;;;;;12.65;2.90;;;;;;;-0.18;77.12;101528.94;5063460;28;20028;-76
2022/01/15 08:15:17;;;;;;;13.02;4.10;;;;;;;-0.50;77.15;101488.97;5045834;28;20024;-76
2022/01/15 08:17:43;;;;;;;17.65;3.88;;;;;;;-0.43;77.58;101512.31;5063832;28;20076;-76
2022/01/15 08:20:09;;;;;;;24.25;4.18;;;;;;;-0.26;77.72;101531.94;5063909;28;20385;-76
2022/01/15 08:22:34;;;;;;;21.10;4.38;;;;;;;-0.37;77.88;101507.53;5063339;28;20029;-75
2022/01/15 08:25:01;;;;;;;21.10;3.85;;;;;;;-0.21;77.99;101524.56;5063683;28;20021;-76
2022/01/15 08:27:27;;;;;;;18.95;3.85;;;;;;;-0.14;78.19;101528.28;5063450;28;20418;-77
2022/01/15 08:29:52;;;;;;;29.33;4.43;;;;;;;-0.07;78.03;101516.75;5063714;28;20092;-70
2022/01/15 08:32:17;;;;;;;24.05;4.43;;;;;;;-0.05;78.09;101521.13;5063602;28;20024;-70
2022/01/15 08:34:44;;;;;;;18.00;4.20;;;;;;;0.02;78.25;101527.44;5063403;28;20094;-70
2022/01/15 08:37:09;;;;;;;22.02;3.72;;;;;;;0.04;78.41;101525.84;5063713;28;20029;-75
2022/01/15 08:39:36;;;;;;;26.70;4.50;;;;;;;0.10;78.59;101509.97;5045460;28;20082;-68
2022/01/15 08:42:06;;;;;;;25.13;4.70;;;;;;;0.34;79.08;101530.81;5063259;28;20028;-72
2022/01/15 08:44:32;;;;;;;17.08;3.58;;;;;;;0.48;79.37;101523.84;5063315;28;20025;-76
2022/01/15 08:46:57;;;;;;;18.92;4.20;;;;;;;0.57;79.53;101527.69;5063585;28;20035;-77
2022/01/15 08:49:22;;;;;;;27.25;4.68;;;;;;;0.60;79.49;101518.50;5062832;28;20017;-77
2022/01/15 08:51:48;;;;;;;19.75;3.78;;;;;;;0.70;79.55;101511.28;5063509;28;20024;-79
2022/01/15 08:54:13;;;;;;;25.65;5.38;;;;;;;0.80;79.45;101508.38;5063603;28;20025;-79
2022/01/15 08:56:39;;;;;;;15.13;4.05;;;;;;;0.92;79.68;101512.34;5064099;28;20397;-82
2022/01/15 08:59:04;;;;;;;21.95;4.35;;;;;;;1.00;79.54;101508.50;5063464;28;20691;-81
2022/01/15 09:01:30;;;;;;;20.40;6.15;;;;;;;1.06;79.71;101500.22;5065135;28;20021;-82
2022/01/15 09:03:57;;;;;;;19.88;4.63;;;;;;;1.12;79.80;101495.41;5045431;28;20112;-85
2022/01/15 09:06:23;;;;;;;26.17;4.65;;;;;;;1.25;79.91;101498.56;5045393;28;20025;-81
2022/01/15 09:08:48;;;;;;;18.80;4.35;;;;;;;1.30;79.97;101484.28;5063728;28;20039;-81
2022/01/15 09:11:14;;;;;;;25.58;4.65;;;;;;;1.26;80.05;101461.94;5064089;28;20021;-83
2022/01/15 09:13:40;;;;;;;27.20;5.50;;;;;;;1.30;80.31;101451.03;5045328;28;20077;-86
2022/01/15 09:16:06;;;;;;;34.63;5.38;;;;;;;1.52;80.28;101464.84;5063486;28;20123;-84
2022/01/15 09:18:31;;;;;;;16.05;3.40;;;;;;;1.61;80.13;101463.56;5045066;28;20036;-84
2022/01/15 09:20:56;;;;;;;26.05;4.70;;;;;;;1.61;80.51;101455.88;5045119;28;20025;-82
2022/01/15 09:23:25;;;;;;;20.00;4.88;;;;;;;1.73;80.55;101468.38;5062862;28;20025;-83
2022/01/15 09:25:50;;;;;;;24.23;4.53;;;;;;;1.64;80.43;101447.47;5045325;28;20021;-81
2022/01/15 09:31:00;;;;;;;17.98;5.28;;;;;;;1.78;80.21;101454.91;5063032;28;20384;-80
2022/01/15 09:33:25;;;;;;;34.05;5.55;;;;;;;1.70;79.92;101452.00;5062713;28;20017;-81
2022/01/15 09:35:51;;;;;;;20.58;3.80;;;;;;;1.64;79.54;101459.41;5044508;28;20422;-80
2022/01/15 09:38:17;;;;;;;14.80;3.63;;;;;;;1.55;79.51;101472.66;5062871;28;20540;-78
2022/01/15 09:40:43;;;;;;;12.10;2.78;;;;;;;1.36;79.16;101465.00;5062837;28;20025;-74
2022/01/15 09:43:09;;;;;;;22.33;4.90;;;;;;;1.22;78.95;101464.34;5061633;28;20017;-73
2022/01/15 09:45:35;;;;;;;14.88;3.45;;;;;;;1.16;79.25;101451.28;5062297;28;20508;-77
2022/01/15 09:48:03;;;;;;;15.68;4.32;;;;;;;1.15;79.27;101461.44;5062133;28;20079;-75
2022/01/15 09:50:31;;;;;;;13.85;4.88;;;;;;;1.15;79.37;101461.44;5062200;28;20049;-76
2022/01/15 09:52:57;;;;;;;19.90;4.90;;;;;;;1.09;79.21;101473.13;5062294;28;20044;-75
2022/01/15 09:55:24;;;;;;;10.63;2.80;;;;;;;1.02;79.03;101468.53;5062678;28;20021;-75
2022/01/15 09:57:50;;;;;;;16.30;3.50;;;;;;;0.85;79.01;101455.78;5044207;28;20032;-74
2022/01/15 10:00:18;;;;;;;15.68;6.00;;;;;;;0.90;79.17;101462.81;5062365;28;20079;-75
2022/01/15 10:02:49;;;;;;;19.75;4.40;;;;;;;0.87;79.25;101460.97;5065740;28;20025;-74
2022/01/15 10:05:16;;;;;;;22.20;5.00;;;;;;;0.78;78.89;101446.09;5065732;28;20032;-75
2022/01/15 10:08:00;;;;;;;16.58;3.92;;;;;;;0.71;79.17;101436.34;5065897;28;20017;-76
2022/01/15 10:10:28;;;;;;;17.77;4.30;;;;;;;0.84;79.31;101465.94;5066124;28;20025;-75
2022/01/15 10:12:54;;;;;;;16.50;4.22;;;;;;;0.79;79.45;101452.06;5047740;28;20021;-75
2022/01/15 10:15:20;;;;;;;23.20;4.97;;;;;;;0.90;79.52;101457.69;5066107;28;20096;-75
2022/01/15 10:17:46;;;;;;;15.93;4.75;;;;;;;0.81;79.52;101430.91;5065972;28;20021;-74
2022/01/15 10:20:22;;;;;;;24.67;4.43;;;;;;;0.96;79.59;101463.09;5065789;28;20033;-75
2022/01/15 10:22:51;;;;;;;22.00;4.93;;;;;;;0.99;79.47;101461.56;5065753;28;20119;-75
2022/01/15 10:25:21;;;;;;;20.70;5.15;;;;;;;0.98;79.25;101466.63;5065817;28;20021;-75
2022/01/15 10:27:50;;;;;;;25.15;5.05;;;;;;;0.92;79.18;101462.09;5065770;28;20023;-75
2022/01/15 10:30:20;;;;;;;20.02;4.65;;;;;;;0.90;79.00;101466.25;5065665;28;20028;-75
2022/01/15 10:33:06;;;;;;;16.40;4.30;;;;;;;0.86;79.11;101464.34;5065608;28;20057;-76
2022/01/15 10:35:37;;;;;;;22.40;4.18;;;;;;;0.86;79.21;101467.75;5065379;28;20582;-75
2022/01/15 10:38:04;;;;;;;19.97;5.97;;;;;;;0.82;79.20;101465.00;5065575;28;20025;-74
2022/01/15 10:40:48;;;;;;;28.52;5.35;;;;;;;0.70;79.34;101445.69;5065667;28;20033;-75
2022/01/15 10:43:18;;;;;;;18.98;5.40;;;;;;;0.68;79.31;101454.97;5047286;28;20056;-75
2022/01/15 10:45:50;;;;;;;21.67;6.60;;;;;;;0.76;79.69;101465.59;5065748;28;20036;-74
2022/01/15 10:48:33;;;;;;;23.80;5.75;;;;;;;0.73;79.78;101458.66;5065262;28;20035;-78
2022/01/15 10:51:02;;;;;;;24.00;5.57;;;;;;;0.91;79.81;101467.13;5065140;28;20025;-76
2022/01/15 10:53:35;;;;;;;16.55;5.85;;;;;;;1.01;79.81;101465.91;5064992;28;20060;-79
2022/01/15 10:56:01;;;;;;;34.42;6.00;;;;;;;1.04;79.88;101473.72;5065565;28;20047;-77
2022/01/15 10:58:27;;;;;;;19.08;7.72;;;;;;;1.11;80.01;101470.63;5047160;28;20032;-78
2022/01/15 11:00:53;;;;;;;27.90;5.70;;;;;;;1.16;79.87;101465.75;5065236;28;20056;-78
2022/01/15 11:03:19;;;;;;;18.95;7.20;;;;;;;1.16;80.15;101453.84;5046999;28;20029;-78
2022/01/15 11:05:49;;;;;;;24.67;6.55;;;;;;;1.19;80.25;101450.53;5064870;28;20525;-78
2022/01/15 11:08:16;;;;;;;23.02;7.03;;;;;;;1.36;80.38;101459.00;5065040;28;20079;-78
2022/01/15 11:10:53;;;;;;;24.90;6.07;;;;;;;1.41;80.38;101448.97;5064923;28;20049;-81
2022/01/15 11:13:49;;;;;;;30.25;5.63;;;;;;;1.41;80.07;101437.06;5063861;28;20024;-81
2022/01/15 11:16:17;;;;;;;28.85;6.70;;;;;;;1.45;80.31;101428.72;5064404;28;20109;-81
2022/01/15 11:18:45;;;;;;;30.48;8.30;;;;;;;1.62;80.42;101443.97;5064872;28;20029;-81
2022/01/15 11:21:13;;;;;;;26.08;6.13;;;;;;;1.68;80.42;101439.13;5064998;28;20049;-82
2022/01/15 11:23:40;;;;;;;22.65;6.68;;;;;;;1.67;80.45;101424.59;5064842;28;20029;-82
2022/01/15 11:26:14;;;;;;;25.67;6.45;;;;;;;1.72;80.29;101428.22;5064919;28;20024;-81
2022/01/15 11:28:43;;;;;;;38.13;6.93;;;;;;;1.73;80.31;101429.97;5064634;28;20100;-82
2022/01/15 11:31:15;;;;;;;27.80;6.20;;;;;;;1.72;80.44;101429.91;5064964;28;20021;-82
2022/01/15 11:33:45;;;;;;;;;;;;;;;1.78;80.55;101431.84;5064832;28;20086;-81
2022/01/15 11:36:30;;;;;;;39.72;7.30;;;;;;;1.82;80.69;101416.69;5064354;28;19928;-82
2022/01/15 11:38:57;;;;;;;27.73;6.45;;;;;;;1.91;80.61;101415.34;5064666;28;20024;-81
2022/01/15 11:41:22;;;;;;;33.65;8.52;;;;;;;1.99;80.54;101416.56;5064638;28;20024;-82
2022/01/15 11:43:49;;;;;;;25.00;6.03;;;;;;;1.99;80.61;101414.00;5047590;28;20040;-87
2022/01/15 11:46:47;;;;;;;36.92;7.20;;;;;;;2.03;80.73;101409.88;5047262;28;20044;-83
2022/01/15 11:49:41;;;;;;;35.88;7.60;;;;;;;2.07;80.74;101407.53;5048731;28;20068;-82
2022/01/15 11:52:08;;;;;;;22.42;6.45;;;;;;;2.11;80.75;101393.13;5064250;28;20021;-82
2022/01/15 11:54:34;;;;;;;36.83;7.05;;;;;;;2.08;80.82;101382.75;5064666;28;20009;-82